KBAFKASH

Guest
Details From KBAF - BARNES MUNI
To KASH - Boire Field Nashua
Flight Number -
Tags generated
Created
Modified
Stats Distance 65 nm / 121 km
Max Altitude 4,200 ft / 1,280 m
Waypoints 3
Social Downloads 0
Likes 0
Share VATSIM

Download

Looking for another format? Having issues loading an existing format? Contact us
Advertisement - Login to hide

Notes

Basic altitude profile: - Ascent Rate: 2500ft/min - Ascent Speed: 250kts - Cruise Altitude: 22000ft - Cruise Speed: 420kts - Descent Rate: 1500ft/min - Descent Speed: 250kts

Route

KBAF FAIDS KASH

ID Type Via Altitude Latitude Longitude Leg Dist Tot Dist Heading (true) Name
O KBAF APT - 0 ft / 0 m 42.15783˚ -72.71551˚ - 0 nm - BARNES MUNI
FAIDS FIX - 4,200 ft / 1,280 m 42.28354˚ -72.50942˚ 11 nm 11 nm 50° / 51° -
O KASH APT - 0 ft / 0 m 42.78176˚ -71.51477˚ 53 nm 65 nm 55° / 56° Boire Field Nashua

Altitude Profile

Advertisement - Login to hide

KBAF

Details ICAO KBAF (BAF)
Name BARNES MUNI
Region United States
Timezone America/New_York (UTC-5.0)
Stats Elevation 271 ft / 83 m (AMSL)
Location 42.157830° -72.715514°
Runways 2
Magnetic Variation 13.878° W

METAR

KBAF 130653Z AUTO 31010G22KT 10SM BKN065 M06/M13 A2937 RMK AO2 PK WND 28028/0624 SLP951 T10561128

Decode

TAF

KBAF 130533Z 1306/1406 32015G25KT P6SM BKN060 FM131500 30018G29KT P6SM SCT045 FM131800 29021G38KT P6SM SCT045 FM132300 28015G33KT P6SM FEW250 FM140200 26010G23KT P6SM SCT250 FM140300 26008KT P6SM BKN100

Decode

Departure Runways

ID Width Length Bearing (true) Bearing (mag) Surface Threshold Offset Overrun Length
02 151 ft / 46 m 9,010 ft / 2,746 m 10.18° 24.06° Asphalt 0 ft / 0 m 610 ft / 186 m
15 102 ft / 31 m 5,005 ft / 1,525 m 140.31° 154.19° Asphalt 0 ft / 0 m 0 ft / 0 m
20 151 ft / 46 m 9,010 ft / 2,746 m 190.19° 204.07° Asphalt 0 ft / 0 m 1,001 ft / 305 m
33 102 ft / 31 m 5,005 ft / 1,525 m 320.32° 334.20° Asphalt 226 ft / 69 m 0 ft / 0 m

KASH

Details ICAO KASH (ASH)
Name Boire Field Nashua
Region United States
Timezone America/New_York (UTC-5.0)
Stats Elevation 199 ft / 61 m (AMSL)
Location 42.781757° -71.514774°
Runways 1
Magnetic Variation 14.573° W

METAR

KASH 130656Z AUTO 27005KT 10SM FEW027 SCT039 OVC050 M02/M03 A2926 RMK AO2 SLP920 T10171033

Decode

TAF

Not found

Destination Runways

ID Width Length Bearing (true) Bearing (mag) Surface Threshold Offset Overrun Length
14 98 ft / 30 m 5,493 ft / 1,674 m 122.78° 137.35° Asphalt 0 ft / 0 m 0 ft / 0 m
32 98 ft / 30 m 5,493 ft / 1,674 m 302.80° 317.37° Asphalt 0 ft / 0 m 0 ft / 0 m

Approach Navaids

Runway Type Ident Frequency Range Bearing (true) Bearing (mag) Slope Elevation
14 Localiser IASH 109.70 MHz 18 nm / 33 km 122.80° 137.38° - 186 ft / 57 m (AMSL)
14 Glidescope IASH 109.70 MHz 10 nm / 19 km 122.79° 137.36° 3.00° 194 ft / 59 m (AMSL)